Time;durP1;ratioP1;P1;durP2;ratioP2;P2;SDS_P1;SDS_P2;PMS_P1;PMS_P2;Temp;Humidity;BMP_temperature;BMP_pressure;BME280_temperature;BME280_humidity;BME280_pressure;Samples;Min_cycle;Max_cycle;Signal;HPM_P1;HPM_P2
2023/01/29 00:01:16;;;;;;;12.37;6.13;;;23.30;38.30;;;;;;5069788;28;20689;-71
2023/01/29 00:03:43;;;;;;;12.80;6.50;;;23.30;37.70;;;;;;5068734;28;20196;-69
2023/01/29 00:06:11;;;;;;;12.73;6.30;;;23.40;37.80;;;;;;5068712;28;20286;-72
2023/01/29 00:08:39;;;;;;;11.20;5.50;;;23.40;37.80;;;;;;5052415;28;20246;-67
2023/01/29 00:11:07;;;;;;;13.67;6.73;;;23.50;38.10;;;;;;5069322;28;20227;-65
2023/01/29 00:13:35;;;;;;;10.83;5.97;;;23.50;37.80;;;;;;5070041;28;20207;-62
2023/01/29 00:16:03;;;;;;;10.67;6.00;;;23.50;37.70;;;;;;5066387;28;20655;-70
2023/01/29 00:18:31;;;;;;;12.93;6.63;;;23.60;37.70;;;;;;5064034;28;20265;-67
2023/01/29 00:20:59;;;;;;;12.93;5.57;;;23.60;37.60;;;;;;5067822;28;20597;-67
2023/01/29 00:23:26;;;;;;;11.23;5.93;;;23.70;37.60;;;;;;5067472;28;20607;-68
2023/01/29 00:25:53;;;;;;;11.40;6.30;;;23.70;37.60;;;;;;5068556;28;20677;-69
2023/01/29 00:28:20;;;;;;;10.93;6.17;;;23.70;37.50;;;;;;5068854;28;20195;-65
2023/01/29 00:30:47;;;;;;;9.17;5.57;;;23.70;37.50;;;;;;5069493;28;20264;-74
2023/01/29 00:33:14;;;;;;;12.03;6.00;;;23.80;37.50;;;;;;5069441;28;20652;-71
2023/01/29 00:35:43;;;;;;;10.83;6.00;;;23.80;37.50;;;;;;5069986;28;20632;-70
2023/01/29 00:38:10;;;;;;;8.10;5.10;;;23.80;37.40;;;;;;5068479;28;20215;-77
2023/01/29 00:46:10;;;;;;;9.43;5.60;;;23.90;37.50;;;;;;5067536;28;20207;-69
2023/01/29 00:48:37;;;;;;;10.77;5.67;;;23.90;37.40;;;;;;5067800;28;20227;-75
2023/01/29 00:51:06;;;;;;;9.93;5.73;;;23.90;37.30;;;;;;5066379;28;20219;-73
2023/01/29 00:53:33;;;;;;;12.13;6.23;;;23.90;37.30;;;;;;5066036;28;20198;-63
2023/01/29 00:56:00;;;;;;;10.23;5.53;;;23.90;37.30;;;;;;5066708;28;20207;-82
2023/01/29 00:58:33;;;;;;;12.60;5.93;;;23.90;37.20;;;;;;5066798;28;20196;-71
2023/01/29 01:01:01;;;;;;;12.77;5.83;;;23.90;37.20;;;;;;5068735;28;20203;-80
2023/01/29 01:03:28;;;;;;;11.67;6.37;;;23.80;37.00;;;;;;5068709;28;20196;-72
2023/01/29 01:06:06;;;;;;;13.57;6.70;;;23.90;37.10;;;;;;5066826;28;20609;-68
2023/01/29 01:11:17;;;;;;;12.20;6.10;;;23.80;37.00;;;;;;5067983;28;20225;-75
2023/01/29 01:13:44;;;;;;;11.50;5.63;;;23.80;37.00;;;;;;5067975;28;20237;-71
2023/01/29 01:16:13;;;;;;;13.37;6.57;;;23.80;37.00;;;;;;5067164;28;20237;-63
2023/01/29 01:18:40;;;;;;;8.07;5.03;;;23.90;37.10;;;;;;5067574;28;20211;-74
2023/01/29 01:21:08;;;;;;;8.87;5.33;;;23.80;37.00;;;;;;5067141;28;20214;-73
2023/01/29 01:23:35;;;;;;;9.90;5.23;;;23.80;37.00;;;;;;5067762;28;20215;-65
2023/01/29 01:26:02;;;;;;;8.50;5.03;;;23.80;37.00;;;;;;5068597;28;20207;-62
2023/01/29 01:28:29;;;;;;;9.40;5.17;;;23.80;37.00;;;;;;5066650;28;20740;-62
2023/01/29 01:30:56;;;;;;;8.80;5.03;;;23.80;37.00;;;;;;5067258;28;20207;-63
2023/01/29 01:33:23;;;;;;;12.03;6.00;;;23.80;37.00;;;;;;5068131;28;20227;-65
2023/01/29 01:35:50;;;;;;;9.87;5.60;;;23.80;37.00;;;;;;5068270;28;20676;-67
2023/01/29 01:38:19;;;;;;;9.00;5.30;;;23.80;37.00;;;;;;5066402;28;20199;-62
2023/01/29 01:40:46;;;;;;;11.33;5.37;;;23.80;37.00;;;;;;5068161;28;20199;-63
2023/01/29 01:43:13;;;;;;;8.37;4.73;;;23.80;37.00;;;;;;5067737;28;20540;-62
2023/01/29 01:45:42;;;;;;;9.00;5.13;;;23.80;37.00;;;;;;5067100;28;20314;-62
2023/01/29 01:48:16;;;;;;;9.37;5.00;;;23.80;37.00;;;;;;5067949;28;20216;-64
2023/01/29 01:50:48;;;;;;;9.33;5.27;;;23.80;37.00;;;;;;5065278;28;20233;-75
2023/01/29 01:53:20;;;;;;;9.40;5.23;;;23.80;37.00;;;;;;5048597;28;20212;-62
2023/01/29 01:55:50;;;;;;;8.73;4.90;;;23.80;37.80;;;;;;5059458;28;20202;-74
2023/01/29 01:58:22;;;;;;;9.70;5.17;;;23.80;37.00;;;;;;5066709;28;20202;-65
2023/01/29 02:00:50;;;;;;;11.10;5.63;;;23.80;37.00;;;;;;5068281;28;20204;-62
2023/01/29 02:11:39;;;;;;;9.80;4.90;;;23.80;37.00;;;;;;5066052;28;20368;-71
2023/01/29 02:14:07;;;;;;;11.37;5.87;;;23.80;37.00;;;;;;5063724;28;20203;-65
2023/01/29 02:16:35;;;;;;;11.50;5.63;;;23.80;37.00;;;;;;5066011;28;20604;-71
2023/01/29 02:19:02;;;;;;;10.57;5.03;;;23.80;37.00;;;;;;5065798;28;20204;-73
2023/01/29 02:21:57;;;;;;;12.57;5.70;;;23.80;37.00;;;;;;5064718;28;20945;-80
2023/01/29 02:24:57;;;;;;;12.53;5.50;;;23.80;36.90;;;;;;5065143;28;20731;-80
2023/01/29 02:27:33;;;;;;;7.97;5.03;;;23.80;36.90;;;;;;5067881;28;20636;-76
2023/01/29 02:30:05;;;;;;;11.60;5.93;;;23.80;37.00;;;;;;5066798;28;20212;-79
2023/01/29 02:32:39;;;;;;;8.60;4.80;;;23.80;37.00;;;;;;5067806;28;20223;-73
2023/01/29 02:35:28;;;;;;;8.60;4.70;;;23.80;37.00;;;;;;5047650;28;20218;-80
2023/01/29 02:38:07;;;;;;;8.77;4.93;;;23.80;36.90;;;;;;5067874;28;20207;-82
2023/01/29 02:40:40;;;;;;;9.67;5.50;;;23.80;37.00;;;;;;5067381;28;20901;-74
2023/01/29 02:43:17;;;;;;;9.57;4.97;;;23.80;37.00;;;;;;5067084;28;20215;-71
2023/01/29 02:45:50;;;;;;;10.03;5.43;;;23.80;36.90;;;;;;5065833;28;20199;-85
2023/01/29 02:48:19;;;;;;;7.93;4.57;;;23.80;36.90;;;;;;5066868;28;20914;-84
2023/01/29 02:50:51;;;;;;;11.87;5.57;;;23.80;37.00;;;;;;5064547;28;20230;-85
2023/01/29 02:53:25;;;;;;;10.07;5.23;;;23.80;37.00;;;;;;5066148;28;21053;-79
2023/01/29 02:55:57;;;;;;;13.63;6.40;;;23.80;36.90;;;;;;5048679;28;20210;-62
2023/01/29 02:58:29;;;;;;;9.43;4.77;;;23.80;36.90;;;;;;5067387;28;20206;-85
2023/01/29 03:01:03;;;;;;;8.23;4.57;;;23.80;37.00;;;;;;5067079;28;20242;-79
2023/01/29 03:03:36;;;;;;;9.13;5.27;;;23.80;36.90;;;;;;5064593;28;20207;-84
2023/01/29 03:06:06;;;;;;;10.20;5.20;;;23.80;36.90;;;;;;5065275;28;20214;-76
2023/01/29 03:08:41;;;;;;;6.83;4.27;;;23.80;36.90;;;;;;5067509;28;20954;-84
2023/01/29 03:11:12;;;;;;;8.43;4.37;;;23.80;36.90;;;;;;5066788;28;20570;-85
2023/01/29 03:13:43;;;;;;;7.27;4.20;;;23.80;36.90;;;;;;5065944;28;20284;-84
2023/01/29 03:16:19;;;;;;;9.10;4.70;;;23.80;36.90;;;;;;5067417;28;20207;-83
2023/01/29 03:18:50;;;;;;;10.47;4.93;;;23.80;36.90;;;;;;5067546;28;20336;-81
2023/01/29 03:32:30;;;;;;;9.20;4.80;;;23.80;36.90;;;;;;5066378;28;20238;-85
2023/01/29 03:35:02;;;;;;;8.23;4.63;;;23.80;36.80;;;;;;5066620;28;20200;-83
2023/01/29 03:37:34;;;;;;;6.43;3.87;;;23.80;36.90;;;;;;5067426;28;20188;-82
2023/01/29 03:40:02;;;;;;;8.90;4.83;;;23.80;36.80;;;;;;5065193;28;20191;-75
2023/01/29 03:42:40;;;;;;;9.27;4.40;;;23.80;36.90;;;;;;5070038;28;20213;-85
2023/01/29 03:45:15;;;;;;;7.43;4.60;;;23.80;36.80;;;;;;5070914;28;20192;-71
2023/01/29 03:47:47;;;;;;;8.30;4.27;;;23.80;36.80;;;;;;5068343;28;20199;-86
2023/01/29 03:50:30;;;;;;;8.57;4.50;;;23.80;36.80;;;;;;5069497;28;20228;-85
2023/01/29 03:53:07;;;;;;;8.67;4.30;;;23.80;36.80;;;;;;5070522;28;20597;-76
2023/01/29 03:55:41;;;;;;;12.40;5.50;;;23.80;36.80;;;;;;5068447;28;20209;-84
2023/01/29 03:58:20;;;;;;;7.83;3.97;;;23.80;36.80;;;;;;5069249;28;20286;-77
2023/01/29 04:00:54;;;;;;;8.37;4.63;;;23.80;36.80;;;;;;5070442;28;20298;-80
2023/01/29 04:03:28;;;;;;;7.87;4.60;;;23.80;36.80;;;;;;5070381;28;20689;-86
2023/01/29 04:06:04;;;;;;;7.37;4.13;;;23.80;36.80;;;;;;5068657;28;20208;-85
2023/01/29 04:08:34;;;;;;;9.87;4.60;;;23.80;36.80;;;;;;5070365;28;20210;-83
2023/01/29 04:11:09;;;;;;;8.83;4.33;;;23.80;36.80;;;;;;5070787;28;20203;-84
2023/01/29 04:13:37;;;;;;;11.13;5.00;;;23.80;36.90;;;;;;5069353;28;20315;-77
2023/01/29 04:16:08;;;;;;;13.00;5.67;;;23.80;36.80;;;;;;5069997;28;20214;-85
2023/01/29 04:18:37;;;;;;;13.53;5.53;;;23.80;36.80;;;;;;5069484;28;20200;-84
2023/01/29 04:21:06;;;;;;;6.43;3.80;;;23.80;36.80;;;;;;5051292;28;20610;-62
2023/01/29 04:23:33;;;;;;;8.50;4.20;;;23.80;37.50;;;;;;5050038;28;20291;-78
2023/01/29 04:26:20;;;;;;;13.63;5.80;;;23.80;36.90;;;;;;5051040;28;20243;-81
2023/01/29 04:28:59;;;;;;;5.27;3.33;;;23.80;36.80;;;;;;5070195;28;20188;-62
2023/01/29 04:31:29;;;;;;;8.20;4.30;;;23.80;36.80;;;;;;5069843;28;20898;-64
2023/01/29 04:34:08;;;;;;;14.27;5.87;;;23.80;36.80;;;;;;5067311;28;20231;-84
2023/01/29 04:36:41;;;;;;;9.03;4.43;;;23.80;36.80;;;;;;5069438;28;20613;-84
2023/01/29 04:39:18;;;;;;;6.53;3.60;;;23.80;36.80;;;;;;5069730;28;20221;-80
2023/01/29 04:41:52;;;;;;;8.17;4.23;;;23.80;36.80;;;;;;5068183;28;20282;-76
2023/01/29 04:44:23;;;;;;;10.07;4.87;;;23.80;37.50;;;;;;5069654;28;20224;-81
2023/01/29 04:46:57;;;;;;;8.57;4.47;;;23.80;36.80;;;;;;5069086;28;20210;-80
2023/01/29 04:49:34;;;;;;;7.20;3.90;;;23.80;36.80;;;;;;5067427;28;20232;-77
2023/01/29 04:52:09;;;;;;;8.30;4.17;;;23.80;36.80;;;;;;5068594;28;20207;-84
2023/01/29 04:54:49;;;;;;;11.43;5.13;;;23.80;36.80;;;;;;5064346;28;20652;-65
2023/01/29 04:57:24;;;;;;;8.80;4.20;;;23.80;36.60;;;;;;5049264;28;20226;-70
2023/01/29 04:59:57;;;;;;;7.07;3.80;;;23.80;36.60;;;;;;5059327;28;20199;-70
2023/01/29 05:02:26;;;;;;;10.90;5.03;;;23.80;36.70;;;;;;5068450;28;20204;-75
2023/01/29 05:04:56;;;;;;;8.93;4.50;;;23.80;36.70;;;;;;5069448;28;20217;-80
2023/01/29 05:07:26;;;;;;;7.97;4.37;;;23.80;36.80;;;;;;5067977;28;20207;-73
2023/01/29 05:09:53;;;;;;;14.23;5.93;;;23.70;36.70;;;;;;5066630;28;20202;-76
2023/01/29 05:12:21;;;;;;;8.43;4.20;;;23.70;36.70;;;;;;5068481;28;20206;-74
2023/01/29 05:14:50;;;;;;;7.77;4.00;;;23.70;36.80;;;;;;5068293;28;20207;-79
2023/01/29 05:17:19;;;;;;;9.20;4.33;;;23.70;36.80;;;;;;5068229;28;20289;-75
2023/01/29 05:19:47;;;;;;;8.97;3.97;;;23.60;36.70;;;;;;5069213;28;20558;-62
2023/01/29 05:22:21;;;;;;;10.33;4.83;;;23.60;36.70;;;;;;5068812;28;20211;-63
2023/01/29 05:24:48;;;;;;;8.03;4.10;;;23.70;36.80;;;;;;5068209;28;20265;-65
2023/01/29 05:30:03;;;;;;;8.60;4.27;;;23.70;36.90;;;;;;5065256;28;20206;-64
2023/01/29 05:32:30;;;;;;;8.70;4.30;;;23.70;36.80;;;;;;5068590;28;20213;-62
2023/01/29 05:34:57;;;;;;;8.13;4.07;;;23.70;36.80;;;;;;5067919;28;20217;-63
2023/01/29 05:37:26;;;;;;;10.73;4.70;;;23.70;36.80;;;;;;5067236;28;20207;-66
2023/01/29 05:39:54;;;;;;;9.40;4.27;;;23.70;36.80;;;;;;5067531;28;20199;-83
2023/01/29 05:42:21;;;;;;;8.57;4.07;;;23.70;36.80;;;;;;5067936;28;20246;-63
2023/01/29 05:44:48;;;;;;;9.40;4.23;;;23.70;36.80;;;;;;5068255;28;21075;-62
2023/01/29 05:47:18;;;;;;;9.47;4.53;;;23.70;36.80;;;;;;5068548;28;20550;-72
2023/01/29 05:49:45;;;;;;;9.33;4.40;;;23.70;36.80;;;;;;5067062;28;20255;-62
2023/01/29 05:52:12;;;;;;;7.37;3.80;;;23.70;36.80;;;;;;5067993;28;20613;-62
2023/01/29 05:54:40;;;;;;;10.67;4.90;;;23.70;36.80;;;;;;5066578;28;20247;-75
2023/01/29 05:57:07;;;;;;;6.47;3.47;;;23.70;36.80;;;;;;5067841;28;20282;-69
2023/01/29 05:59:34;;;;;;;8.30;4.10;;;23.70;36.70;;;;;;5067355;28;20200;-77
2023/01/29 06:02:01;;;;;;;8.70;4.00;;;23.70;36.80;;;;;;5066040;28;20212;-75
2023/01/29 06:04:28;;;;;;;8.00;4.17;;;23.80;36.90;;;;;;5067980;28;20238;-73
2023/01/29 06:06:54;;;;;;;7.10;3.83;;;23.80;36.90;;;;;;5067782;28;20286;-75
2023/01/29 06:09:21;;;;;;;10.87;4.97;;;23.80;36.80;;;;;;5064205;28;20296;-82
2023/01/29 06:11:50;;;;;;;17.20;6.73;;;23.80;36.80;;;;;;5067419;28;20284;-76
2023/01/29 06:14:17;;;;;;;7.37;4.07;;;23.70;36.70;;;;;;5068428;28;20229;-67
2023/01/29 06:16:43;;;;;;;8.43;4.40;;;23.80;36.80;;;;;;5068251;28;20282;-72
2023/01/29 06:19:10;;;;;;;9.73;4.53;;;23.80;36.80;;;;;;5066632;28;20731;-67
2023/01/29 06:21:37;;;;;;;14.97;5.90;;;23.80;36.80;;;;;;5065992;28;20289;-71
2023/01/29 06:24:05;;;;;;;7.80;4.00;;;23.80;36.80;;;;;;5062560;28;20278;-71
2023/01/29 06:26:32;;;;;;;7.97;4.40;;;23.80;36.80;;;;;;5067620;28;20662;-75
2023/01/29 06:29:00;;;;;;;8.20;4.17;;;23.80;36.80;;;;;;5068167;28;20198;-73
2023/01/29 06:31:27;;;;;;;7.83;4.23;;;23.80;36.80;;;;;;5067969;28;20199;-74
2023/01/29 06:33:54;;;;;;;8.73;4.33;;;23.80;36.80;;;;;;5065995;28;20231;-72
2023/01/29 06:36:21;;;;;;;10.13;4.70;;;23.80;36.80;;;;;;5067343;28;20215;-78
2023/01/29 06:38:48;;;;;;;7.50;4.13;;;23.80;36.80;;;;;;5066917;28;20201;-69
2023/01/29 06:41:17;;;;;;;8.37;4.30;;;23.80;36.80;;;;;;5066563;28;20230;-67
2023/01/29 06:43:45;;;;;;;10.77;4.90;;;23.80;36.80;;;;;;5067121;28;20207;-63
2023/01/29 06:46:14;;;;;;;7.87;4.20;;;23.80;36.80;;;;;;5066516;28;20217;-80
2023/01/29 06:48:40;;;;;;;8.53;4.40;;;23.80;36.80;;;;;;5067793;28;20226;-80
2023/01/29 06:51:09;;;;;;;8.17;4.07;;;23.80;36.90;;;;;;5067428;28;20290;-75
2023/01/29 06:53:37;;;;;;;15.23;6.43;;;23.80;36.80;;;;;;5057411;28;20231;-78
2023/01/29 06:56:04;;;;;;;8.27;4.10;;;23.80;36.90;;;;;;5064594;28;20213;-77
2023/01/29 06:58:31;;;;;;;9.30;4.43;;;23.80;36.90;;;;;;5068245;28;20194;-62
2023/01/29 07:01:03;;;;;;;11.17;4.90;;;23.80;36.80;;;;;;5065586;28;20733;-69
2023/01/29 07:03:31;;;;;;;13.27;5.80;;;23.80;36.80;;;;;;5066040;28;20207;-62
2023/01/29 07:05:58;;;;;;;12.57;5.50;;;23.80;36.80;;;;;;5066316;28;20215;-62
2023/01/29 07:08:25;;;;;;;16.60;6.70;;;23.80;36.80;;;;;;5065629;28;20192;-84
2023/01/29 07:10:52;;;;;;;9.67;4.30;;;23.80;36.80;;;;;;5068197;28;20198;-79
2023/01/29 07:13:19;;;;;;;6.63;3.90;;;23.80;36.80;;;;;;5067594;28;20707;-75
2023/01/29 07:15:46;;;;;;;16.20;6.43;;;23.80;37.50;;;;;;5069768;28;20203;-68
2023/01/29 07:18:13;;;;;;;9.67;4.73;;;23.80;36.80;;;;;;5069018;28;20225;-76
2023/01/29 07:20:42;;;;;;;7.13;3.90;;;23.80;36.90;;;;;;5071023;28;20222;-72
2023/01/29 07:23:11;;;;;;;14.73;5.93;;;23.80;36.80;;;;;;5069543;28;20203;-82
2023/01/29 07:25:38;;;;;;;7.77;3.97;;;23.80;36.80;;;;;;5050933;28;20204;-75
2023/01/29 07:28:06;;;;;;;6.20;3.70;;;23.80;36.80;;;;;;5065952;28;20209;-69
2023/01/29 07:30:34;;;;;;;8.47;4.37;;;23.80;36.80;;;;;;5071145;28;20207;-68
2023/01/29 07:33:05;;;;;;;13.27;5.70;;;23.80;36.80;;;;;;5070868;28;20280;-66
2023/01/29 07:35:35;;;;;;;8.80;4.40;;;23.80;36.80;;;;;;5065717;28;20226;-65
2023/01/29 07:38:04;;;;;;;7.37;3.90;;;23.90;37.00;;;;;;5070113;28;20203;-72
2023/01/29 07:40:31;;;;;;;9.17;4.87;;;23.80;36.80;;;;;;5070687;28;20214;-62
2023/01/29 07:42:59;;;;;;;7.00;3.77;;;23.90;36.90;;;;;;5069511;28;20293;-67
2023/01/29 07:45:26;;;;;;;5.53;3.60;;;23.90;37.00;;;;;;5069285;28;20198;-72
2023/01/29 07:47:54;;;;;;;6.80;3.83;;;23.80;36.90;;;;;;5070622;28;20203;-76
2023/01/29 07:50:21;;;;;;;8.03;4.23;;;23.90;36.90;;;;;;5068810;28;20231;-72
2023/01/29 07:52:47;;;;;;;6.87;4.00;;;23.90;36.90;;;;;;5070771;28;20210;-75
2023/01/29 07:55:17;;;;;;;10.63;5.20;;;23.90;36.90;;;;;;5069631;28;20236;-73
2023/01/29 07:57:44;;;;;;;8.37;4.60;;;23.90;36.90;;;;;;5069720;28;20286;-63
2023/01/29 08:00:12;;;;;;;19.83;7.60;;;23.90;36.90;;;;;;5067992;28;20200;-63
2023/01/29 08:02:39;;;;;;;10.10;5.20;;;23.90;36.90;;;;;;5068574;28;20195;-63
2023/01/29 08:05:07;;;;;;;13.87;6.27;;;23.80;36.80;;;;;;5068441;28;20206;-72
2023/01/29 08:07:34;;;;;;;8.50;4.23;;;23.90;36.90;;;;;;5069510;28;20293;-76
2023/01/29 08:10:01;;;;;;;8.03;4.43;;;23.90;36.90;;;;;;5070486;28;20191;-78
2023/01/29 08:12:29;;;;;;;10.60;5.23;;;23.90;36.90;;;;;;5068597;28;20204;-78
2023/01/29 08:14:56;;;;;;;10.07;4.30;;;23.90;36.90;;;;;;5066196;28;20234;-78
2023/01/29 08:17:23;;;;;;;8.50;4.90;;;23.90;36.90;;;;;;5067363;28;20204;-77
2023/01/29 08:19:49;;;;;;;15.23;6.70;;;23.90;37.00;;;;;;5066593;28;20203;-62
2023/01/29 08:22:16;;;;;;;7.97;4.53;;;23.90;37.00;;;;;;5064426;28;20236;-62
2023/01/29 08:24:43;;;;;;;7.13;4.07;;;23.90;37.00;;;;;;5056003;28;20817;-70
2023/01/29 08:27:11;;;;;;;7.77;4.23;;;23.90;37.00;;;;;;5069939;28;20249;-62
2023/01/29 08:29:39;;;;;;;9.33;4.63;;;23.90;37.00;;;;;;5069972;28;20290;-62
2023/01/29 08:32:10;;;;;;;9.30;4.43;;;23.90;37.00;;;;;;5069638;28;20199;-61
2023/01/29 08:34:36;;;;;;;16.57;6.67;;;23.90;37.00;;;;;;5067313;28;20223;-63
2023/01/29 08:37:03;;;;;;;57.80;15.40;;;23.90;37.00;;;;;;5065344;28;20302;-81
2023/01/29 08:39:30;;;;;;;43.03;11.57;;;23.90;37.20;;;;;;5069840;28;20611;-79
2023/01/29 08:41:57;;;;;;;31.87;10.67;;;23.90;37.40;;;;;;5069441;28;20655;-81
2023/01/29 08:44:24;;;;;;;31.57;10.17;;;23.90;37.40;;;;;;5069727;28;20321;-83
2023/01/29 08:46:52;;;;;;;26.43;8.93;;;23.90;37.30;;;;;;5069482;28;20203;-87
2023/01/29 08:49:19;;;;;;;23.07;7.50;;;23.90;37.30;;;;;;5054619;28;20255;-86
2023/01/29 08:51:46;;;;;;;14.43;6.03;;;23.90;37.20;;;;;;5049126;28;20831;-75
2023/01/29 08:54:13;;;;;;;16.13;6.67;;;23.80;37.10;;;;;;5049020;28;20223;-81
2023/01/29 08:56:40;;;;;;;13.27;5.97;;;23.80;37.00;;;;;;5049341;28;20210;-67
2023/01/29 08:59:07;;;;;;;14.93;6.20;;;23.80;37.00;;;;;;5049037;28;20636;-81
2023/01/29 09:01:34;;;;;;;14.97;6.77;;;23.80;37.00;;;;;;5048265;28;20657;-74
2023/01/29 09:04:02;;;;;;;12.57;6.00;;;23.80;37.00;;;;;;5063779;28;20666;-66
2023/01/29 09:06:29;;;;;;;18.37;6.77;;;23.80;37.00;;;;;;5067018;28;20203;-67
2023/01/29 09:08:56;;;;;;;13.73;5.73;;;23.80;37.00;;;;;;5067720;28;20841;-66
2023/01/29 09:11:23;;;;;;;13.83;6.23;;;23.80;37.00;;;;;;5068921;28;20202;-64
2023/01/29 09:13:50;;;;;;;15.30;5.93;;;23.80;37.00;;;;;;5069116;28;20677;-63
2023/01/29 09:16:17;;;;;;;15.60;6.77;;;23.80;37.00;;;;;;5068900;28;20604;-67
2023/01/29 09:18:43;;;;;;;12.73;6.17;;;23.80;37.00;;;;;;5069126;28;20209;-64
2023/01/29 09:21:12;;;;;;;20.83;7.90;;;23.80;37.00;;;;;;5065497;28;20219;-63
2023/01/29 09:23:39;;;;;;;14.53;5.97;;;23.80;37.00;;;;;;5066202;28;20208;-64
2023/01/29 09:26:07;;;;;;;17.40;6.53;;;23.70;36.90;;;;;;5069095;28;20194;-67
2023/01/29 09:28:34;;;;;;;10.67;5.20;;;23.70;36.90;;;;;;5068667;28;20210;-65
2023/01/29 09:31:02;;;;;;;15.53;6.70;;;23.70;37.00;;;;;;5068285;28;20298;-67
2023/01/29 09:33:29;;;;;;;13.00;6.00;;;23.60;37.50;;;;;;5066160;28;20202;-63
2023/01/29 09:35:56;;;;;;;10.90;4.97;;;23.70;37.00;;;;;;5066656;28;20209;-78
2023/01/29 09:38:25;;;;;;;15.43;5.73;;;23.60;36.90;;;;;;5068334;28;20668;-78
2023/01/29 09:41:00;;;;;;;14.77;6.07;;;23.60;36.90;;;;;;5068659;28;20214;-85
2023/01/29 09:43:42;;;;;;;18.07;6.70;;;23.60;36.90;;;;;;5068060;28;20697;-77
2023/01/29 09:46:18;;;;;;;13.60;5.97;;;23.60;36.90;;;;;;5068295;28;20558;-83
2023/01/29 09:48:46;;;;;;;10.43;5.20;;;23.60;37.00;;;;;;5068329;28;20231;-76
2023/01/29 09:51:28;;;;;;;11.90;5.30;;;23.50;36.90;;;;;;5067158;28;20203;-75
2023/01/29 09:54:06;;;;;;;12.17;5.37;;;23.50;36.90;;;;;;5068592;28;20198;-84
2023/01/29 09:56:33;;;;;;;13.37;5.10;;;23.50;36.90;;;;;;5068271;28;20687;-88
2023/01/29 09:59:00;;;;;;;11.20;4.97;;;23.50;36.90;;;;;;5067768;28;20204;-82
2023/01/29 10:01:33;;;;;;;7.50;4.53;;;23.50;36.90;;;;;;5068281;28;20204;-78
2023/01/29 10:04:19;;;;;;;11.57;5.40;;;23.50;36.90;;;;;;5068444;28;20200;-85
2023/01/29 10:06:58;;;;;;;10.77;4.87;;;23.50;36.90;;;;;;5060596;28;20694;-85
2023/01/29 10:09:41;;;;;;;9.43;4.83;;;23.50;36.90;;;;;;5050296;28;20218;-82
2023/01/29 10:12:25;;;;;;;11.60;4.80;;;23.50;36.90;;;;;;5068209;28;20202;-81
2023/01/29 10:15:00;;;;;;;13.17;5.33;;;23.50;36.90;;;;;;5067885;28;20234;-86
2023/01/29 10:17:48;;;;;;;10.37;5.07;;;23.50;36.90;;;;;;5068337;28;20297;-84
2023/01/29 10:20:46;;;;;;;9.07;4.47;;;23.50;36.60;;;;;;5066122;28;20209;-64
2023/01/29 10:23:22;;;;;;;10.40;4.53;;;23.40;37.00;;;;;;5036307;28;20208;-61
2023/01/29 10:25:50;;;;;;;15.83;6.03;;;23.40;37.20;;;;;;5061609;28;20213;-66
2023/01/29 10:28:20;;;;;;;13.37;4.93;;;23.40;37.50;;;;;;5067366;28;20203;-65
2023/01/29 10:30:49;;;;;;;9.67;4.83;;;23.40;37.40;;;;;;5066631;28;20199;-65
2023/01/29 10:33:25;;;;;;;10.70;5.10;;;23.30;37.30;;;;;;5067429;28;20752;-65
2023/01/29 10:35:56;;;;;;;10.97;5.13;;;23.30;37.30;;;;;;5068149;28;20992;-80
2023/01/29 10:38:34;;;;;;;9.50;4.70;;;23.30;37.30;;;;;;5065984;28;20674;-91
2023/01/29 10:41:14;;;;;;;11.50;5.07;;;23.30;37.40;;;;;;5061381;28;20199;-81
2023/01/29 10:43:54;;;;;;;9.73;4.77;;;23.30;38.00;;;;;;5059856;28;20875;-69
2023/01/29 10:46:29;;;;;;;8.97;4.53;;;23.30;37.40;;;;;;5047551;28;20679;-78
2023/01/29 10:49:06;;;;;;;13.37;5.10;;;23.30;37.40;;;;;;5050609;28;20223;-81
2023/01/29 10:51:58;;;;;;;14.80;5.90;;;23.30;37.30;;;;;;5058457;28;20199;-67
2023/01/29 10:54:39;;;;;;;12.50;5.00;;;23.40;37.40;;;;;;5069404;28;20226;-75
2023/01/29 10:57:16;;;;;;;15.27;5.73;;;23.40;37.60;;;;;;5068885;28;20885;-84
2023/01/29 10:59:57;;;;;;;9.57;4.63;;;23.40;37.40;;;;;;5066080;28;20321;-80
2023/01/29 11:02:24;;;;;;;7.83;4.07;;;23.40;37.30;;;;;;5071525;28;20206;-76
2023/01/29 11:04:51;;;;;;;10.07;4.90;;;23.40;37.30;;;;;;5071702;28;20198;-70
2023/01/29 11:07:21;;;;;;;10.53;4.70;;;23.40;37.20;;;;;;5071499;28;20204;-65
2023/01/29 11:09:56;;;;;;;9.03;4.70;;;23.40;37.80;;;;;;5070308;28;20292;-79
2023/01/29 11:12:29;;;;;;;7.90;4.40;;;23.50;37.10;;;;;;5065163;28;20203;-66
2023/01/29 11:15:02;;;;;;;26.07;9.37;;;23.50;37.10;;;;;;5064283;28;20314;-68
2023/01/29 11:17:29;;;;;;;9.53;4.90;;;23.50;37.10;;;;;;5071071;28;20199;-69
2023/01/29 11:19:56;;;;;;;9.30;4.80;;;23.50;37.10;;;;;;5071219;28;20199;-65
2023/01/29 11:22:25;;;;;;;10.43;5.03;;;23.50;37.10;;;;;;5071142;28;20211;-66
2023/01/29 11:25:08;;;;;;;13.63;5.97;;;23.50;37.10;;;;;;5070770;28;20203;-65
2023/01/29 11:27:42;;;;;;;9.97;4.90;;;23.50;37.00;;;;;;5071224;28;20190;-71
2023/01/29 11:30:17;;;;;;;7.83;4.23;;;23.60;37.10;;;;;;5068614;28;20207;-69
2023/01/29 11:32:44;;;;;;;7.40;4.30;;;23.50;37.00;;;;;;5069392;28;20205;-65
2023/01/29 11:35:22;;;;;;;9.33;4.80;;;23.50;37.00;;;;;;5067080;28;20227;-72
2023/01/29 11:37:49;;;;;;;10.33;5.00;;;23.60;37.00;;;;;;5050718;28;20196;-74
2023/01/29 11:40:39;;;;;;;9.20;4.67;;;23.60;37.10;;;;;;5069170;28;20196;-76
2023/01/29 11:43:19;;;;;;;8.47;4.50;;;23.60;36.90;;;;;;5069933;28;21038;-77
2023/01/29 11:45:47;;;;;;;14.80;6.47;;;23.60;36.90;;;;;;5069444;28;20206;-68
2023/01/29 11:48:16;;;;;;;14.13;6.37;;;23.60;37.00;;;;;;5068163;28;20351;-78
2023/01/29 11:50:44;;;;;;;9.63;4.90;;;23.60;36.90;;;;;;5053167;28;20199;-79
2023/01/29 11:53:35;;;;;;;10.30;4.80;;;23.60;37.00;;;;;;5070121;28;20198;-68
2023/01/29 11:56:05;;;;;;;10.37;5.10;;;23.60;36.90;;;;;;5070108;28;20562;-81
2023/01/29 11:58:35;;;;;;;9.20;4.63;;;23.60;36.90;;;;;;5069701;28;20216;-71
2023/01/29 12:01:03;;;;;;;9.53;4.90;;;23.60;36.90;;;;;;5068828;28;20199;-81
2023/01/29 12:03:35;;;;;;;8.17;4.63;;;23.60;36.90;;;;;;5067858;28;20670;-69
2023/01/29 12:06:07;;;;;;;8.83;4.77;;;23.60;36.90;;;;;;5070761;28;20197;-75
2023/01/29 12:08:37;;;;;;;9.97;4.70;;;23.60;36.90;;;;;;5068366;28;20196;-71
2023/01/29 12:11:12;;;;;;;8.73;4.60;;;23.60;36.90;;;;;;5069061;28;20264;-83
2023/01/29 12:13:42;;;;;;;15.90;6.60;;;23.60;36.80;;;;;;5068103;28;20206;-66
2023/01/29 12:16:25;;;;;;;10.33;4.73;;;23.60;36.90;;;;;;5067284;28;20218;-68
2023/01/29 12:18:57;;;;;;;9.17;4.37;;;23.60;36.80;;;;;;5059802;28;20686;-65
2023/01/29 12:21:32;;;;;;;12.90;5.87;;;23.60;36.80;;;;;;5068072;28;20214;-65
2023/01/29 12:24:03;;;;;;;8.30;4.60;;;23.60;36.80;;;;;;5069835;28;20735;-65
2023/01/29 12:26:35;;;;;;;11.37;4.93;;;23.60;36.80;;;;;;5068545;28;20213;-65
2023/01/29 12:29:20;;;;;;;8.87;4.57;;;23.60;36.80;;;;;;5070043;28;20685;-65
2023/01/29 12:31:53;;;;;;;13.40;5.63;;;23.60;36.80;;;;;;5054573;28;20207;-66
2023/01/29 12:34:27;;;;;;;10.93;4.73;;;23.60;36.90;;;;;;5062410;28;20196;-77
2023/01/29 12:37:00;;;;;;;12.93;5.60;;;23.60;36.80;;;;;;5067127;28;20199;-80
2023/01/29 12:39:27;;;;;;;7.47;4.03;;;23.60;36.90;;;;;;5069744;28;20206;-68
2023/01/29 12:41:59;;;;;;;8.30;4.67;;;23.60;36.80;;;;;;5067237;28;20695;-79
2023/01/29 12:44:35;;;;;;;8.40;4.30;;;23.70;36.90;;;;;;5069254;28;20218;-71
2023/01/29 12:47:08;;;;;;;8.53;4.80;;;23.70;36.90;;;;;;5070111;28;20235;-70
2023/01/29 12:49:39;;;;;;;11.53;5.50;;;23.70;36.90;;;;;;5069463;28;20242;-74
2023/01/29 12:52:12;;;;;;;8.47;4.57;;;23.60;36.80;;;;;;5063184;28;20652;-72
2023/01/29 12:54:46;;;;;;;7.30;4.33;;;23.60;36.70;;;;;;5059290;28;20196;-80
2023/01/29 12:57:21;;;;;;;9.23;4.53;;;23.70;36.80;;;;;;5068787;28;20204;-74
2023/01/29 12:59:54;;;;;;;8.37;4.57;;;23.70;36.80;;;;;;5069160;28;20279;-72
2023/01/29 13:02:32;;;;;;;16.03;6.67;;;23.70;36.80;;;;;;5051244;28;20200;-71
2023/01/29 13:05:04;;;;;;;7.27;4.13;;;23.70;36.70;;;;;;5063277;28;20936;-72
2023/01/29 13:07:36;;;;;;;9.77;4.80;;;23.70;36.70;;;;;;5066506;28;20283;-74
2023/01/29 13:10:09;;;;;;;8.03;4.27;;;23.70;36.80;;;;;;5067435;28;20631;-70
2023/01/29 13:12:39;;;;;;;10.10;5.00;;;23.70;36.80;;;;;;5068704;28;20291;-80
2023/01/29 13:15:17;;;;;;;7.70;4.17;;;23.70;36.80;;;;;;5069684;28;20212;-75
2023/01/29 13:17:49;;;;;;;8.07;4.30;;;23.70;36.80;;;;;;5069703;28;20207;-79
2023/01/29 13:20:20;;;;;;;7.63;4.10;;;23.70;36.70;;;;;;5068041;28;20675;-76
2023/01/29 13:22:50;;;;;;;17.73;7.20;;;23.70;36.80;;;;;;5066251;28;20210;-69
2023/01/29 13:25:19;;;;;;;8.83;4.80;;;23.70;36.70;;;;;;5067726;28;20213;-66
2023/01/29 13:27:47;;;;;;;8.13;4.47;;;23.60;36.70;;;;;;5069000;28;20274;-65
2023/01/29 13:30:33;;;;;;;11.30;5.43;;;23.70;36.80;;;;;;5067965;28;20239;-74
2023/01/29 13:33:09;;;;;;;9.30;4.83;;;23.70;36.80;;;;;;5060662;28;20213;-77